Time;durP1;ratioP1;P1;durP2;ratioP2;P2;SDS_P1;SDS_P2;PMS_P1;PMS_P2;Temp;Humidity;BMP_temperature;BMP_pressure;BME280_temperature;BME280_humidity;BME280_pressure;Samples;Min_cycle;Max_cycle;Signal;HPM_P1;HPM_P2
2021/04/02 00:00:52;;;;;;;22.07;15.38;;;;;;;11.49;59.02;99674.61;1799795;79;21163;-74
2021/04/02 00:03:28;;;;;;;22.10;15.53;;;;;;;11.48;59.06;99665.00;1802663;79;21651;-75
2021/04/02 00:06:14;;;;;;;20.87;13.60;;;;;;;11.53;59.08;99655.31;1808214;78;22617;-75
2021/04/02 00:08:42;;;;;;;22.15;15.38;;;;;;;11.48;59.28;99651.63;1776177;78;21207;-76
2021/04/02 00:11:12;;;;;;;21.87;15.00;;;;;;;11.46;59.70;99656.45;1814465;77;21703;-76
2021/04/02 00:13:44;;;;;;;21.17;15.15;;;;;;;11.45;60.27;99648.19;1795196;78;21925;-75
2021/04/02 00:16:15;;;;;;;21.53;14.73;;;;;;;11.42;60.59;99642.06;1797231;78;21215;-75
2021/04/02 00:18:43;;;;;;;23.23;15.30;;;;;;;11.40;60.94;99641.55;1803024;77;21393;-75
2021/04/02 00:21:12;;;;;;;21.20;14.78;;;;;;;11.40;61.00;99637.53;1811235;77;21450;-74
2021/04/02 00:23:41;;;;;;;19.92;12.47;;;;;;;11.37;60.97;99638.09;1796161;77;21463;-73
2021/04/02 00:26:17;;;;;;;18.83;14.00;;;;;;;11.34;60.92;99628.52;1765281;78;21195;-74
2021/04/02 00:28:47;;;;;;;21.97;15.13;;;;;;;11.34;60.98;99627.17;1776416;78;21797;-75
2021/04/02 00:31:15;;;;;;;20.62;15.38;;;;;;;11.35;61.12;99619.41;1803398;77;21179;-74
2021/04/02 00:33:43;;;;;;;21.17;15.70;;;;;;;11.35;61.37;99603.36;1805699;77;21174;-73
2021/04/02 00:36:11;;;;;;;21.95;15.68;;;;;;;11.36;61.68;99603.64;1808418;77;21590;-76
2021/04/02 00:38:40;;;;;;;20.47;15.60;;;;;;;11.35;61.94;99590.81;1804811;77;21194;-76
2021/04/02 00:41:17;;;;;;;20.37;15.43;;;;;;;11.34;62.05;99588.41;1808007;77;21686;-74
2021/04/02 00:43:47;;;;;;;23.93;15.10;;;;;;;11.33;62.20;99587.63;1796734;78;22283;-76
2021/04/02 00:46:19;;;;;;;22.35;15.80;;;;;;;11.28;62.32;99601.03;1801083;77;21556;-75
2021/04/02 00:48:47;;;;;;;21.65;14.60;;;;;;;11.25;62.52;99590.91;1811549;77;21369;-73
2021/04/02 00:51:28;;;;;;;21.80;14.73;;;;;;;11.21;62.70;99584.55;1801310;77;21178;-73
2021/04/02 00:53:57;;;;;;;22.53;15.67;;;;;;;11.22;62.84;99586.95;1804115;77;21150;-74
2021/04/02 00:56:26;;;;;;;20.13;14.77;;;;;;;11.19;63.08;99580.83;1776190;78;21432;-74
2021/04/02 00:58:55;;;;;;;25.67;16.17;;;;;;;11.19;63.42;99578.16;1763637;79;21444;-73
2021/04/02 01:01:23;;;;;;;22.05;15.40;;;;;;;11.19;63.69;99570.69;1784515;78;22181;-74
2021/04/02 01:03:54;;;;;;;23.67;15.50;;;;;;;11.16;63.90;99551.21;1781386;79;21191;-74
2021/04/02 01:06:25;;;;;;;20.83;15.40;;;;;;;11.14;63.90;99560.05;1771173;79;21654;-74
2021/04/02 01:08:55;;;;;;;21.60;15.78;;;;;;;11.14;63.87;99562.17;1769458;79;21772;-74
2021/04/02 01:11:26;;;;;;;22.73;15.20;;;;;;;11.13;63.96;99562.47;1766918;79;21143;-75
2021/04/02 01:13:58;;;;;;;21.45;14.83;;;;;;;11.14;64.01;99558.16;1757963;79;22317;-73
2021/04/02 01:16:31;;;;;;;19.25;14.95;;;;;;;11.16;64.04;99560.02;1763845;79;21598;-75
2021/04/02 01:19:14;;;;;;;22.47;14.50;;;;;;;11.16;63.99;99548.53;1765338;79;21667;-75
2021/04/02 01:21:58;;;;;;;21.75;15.68;;;;;;;11.13;63.89;99541.88;1768436;79;21303;-76
2021/04/02 01:25:01;;;;;;;20.37;15.00;;;;;;;11.11;63.89;99525.33;1764346;79;21214;-75
2021/04/02 01:28:07;;;;;;;26.27;16.80;;;;;;;11.07;64.00;99512.28;1782670;78;22278;-74
2021/04/02 01:30:38;;;;;;;24.63;16.23;;;;;;;11.00;64.06;99520.64;1737920;80;21231;-76
2021/04/02 01:33:08;;;;;;;21.53;15.73;;;;;;;10.93;64.15;99514.06;1777724;78;21127;-75
2021/04/02 01:35:39;;;;;;;23.15;16.65;;;;;;;10.86;64.23;99514.92;1760088;80;21582;-76
2021/04/02 01:38:18;;;;;;;20.65;16.25;;;;;;;10.79;64.30;99508.06;1780412;80;21115;-75
2021/04/02 01:40:50;;;;;;;22.90;15.93;;;;;;;10.72;64.30;99501.45;1788470;78;21360;-75
2021/04/02 01:43:22;;;;;;;21.10;15.28;;;;;;;10.63;64.27;99495.12;1726556;81;21079;-75
2021/04/02 01:45:51;;;;;;;23.20;15.88;;;;;;;10.54;64.25;99505.11;1784255;78;21119;-75
2021/04/02 01:48:20;;;;;;;21.75;15.55;;;;;;;10.47;64.23;99492.63;1787782;80;21106;-74
2021/04/02 01:50:51;;;;;;;23.30;15.53;;;;;;;10.40;64.15;99489.50;1759465;78;21158;-75
2021/04/02 01:53:22;;;;;;;23.95;16.35;;;;;;;10.36;64.21;99492.45;1784898;78;21201;-74
2021/04/02 01:55:52;;;;;;;23.10;15.38;;;;;;;10.32;64.21;99491.43;1786798;78;21180;-75
2021/04/02 01:58:20;;;;;;;22.35;16.25;;;;;;;10.29;64.26;99481.31;1734442;80;21579;-73
2021/04/02 02:00:52;;;;;;;23.12;16.37;;;;;;;10.27;64.31;99488.83;1779132;79;21162;-73
2021/04/02 02:03:22;;;;;;;22.00;15.85;;;;;;;10.25;64.25;99487.73;1782555;78;21715;-74
2021/04/02 02:05:53;;;;;;;23.52;16.15;;;;;;;10.24;64.21;99481.34;1765235;80;21419;-75
2021/04/02 02:08:23;;;;;;;21.62;15.32;;;;;;;10.22;64.13;99471.48;1777976;78;21226;-74
2021/04/02 02:11:07;;;;;;;19.77;14.83;;;;;;;10.21;63.99;99479.23;1780719;80;21178;-73
2021/04/02 02:13:48;;;;;;;24.70;16.67;;;;;;;10.19;63.94;99482.17;1780001;78;21408;-74
2021/04/02 02:16:20;;;;;;;20.23;15.43;;;;;;;10.18;63.97;99467.79;1778968;78;21548;-74
2021/04/02 02:18:55;;;;;;;22.60;16.00;;;;;;;10.19;63.96;99462.70;1781457;78;22291;-74
2021/04/02 02:21:23;;;;;;;23.92;16.20;;;;;;;10.18;63.97;99469.13;1784605;80;21856;-73
2021/04/02 02:23:54;;;;;;;24.02;16.30;;;;;;;10.16;63.90;99464.59;1758526;80;21175;-74
2021/04/02 02:26:22;;;;;;;21.85;15.48;;;;;;;10.16;63.88;99465.92;1788895;80;21140;-75
2021/04/02 02:28:52;;;;;;;23.70;16.05;;;;;;;10.14;63.86;99472.09;1787009;78;21142;-74
2021/04/02 02:31:20;;;;;;;21.45;16.17;;;;;;;10.13;63.87;99467.28;1786266;80;22338;-75
2021/04/02 02:33:49;;;;;;;25.10;15.50;;;;;;;10.12;63.79;99468.91;1745117;79;21100;-73
2021/04/02 02:36:19;;;;;;;23.25;16.30;;;;;;;10.10;63.67;99466.50;1752494;79;21598;-73
2021/04/02 02:38:47;;;;;;;22.48;15.63;;;;;;;10.09;63.74;99462.25;1768698;79;21168;-74
2021/04/02 02:41:17;;;;;;;21.57;15.38;;;;;;;10.08;63.69;99472.67;1763982;81;21670;-75
2021/04/02 02:43:47;;;;;;;21.45;15.60;;;;;;;10.05;63.64;99462.56;1765981;79;21383;-72
2021/04/02 02:46:19;;;;;;;22.05;15.98;;;;;;;10.03;63.71;99464.16;1737391;81;21147;-74
2021/04/02 02:48:50;;;;;;;21.52;15.53;;;;;;;10.00;63.72;99459.41;1766985;79;21160;-73
2021/04/02 02:51:18;;;;;;;23.42;15.38;;;;;;;9.98;63.73;99464.76;1747860;81;21502;-75
2021/04/02 02:53:46;;;;;;;22.80;15.88;;;;;;;9.94;63.79;99463.73;1763124;79;21124;-74
2021/04/02 02:56:16;;;;;;;22.13;15.80;;;;;;;9.90;63.83;99464.80;1764150;79;22374;-74
2021/04/02 02:58:44;;;;;;;23.30;15.63;;;;;;;9.86;63.94;99457.89;1757443;79;21156;-75
2021/04/02 03:01:14;;;;;;;23.02;15.93;;;;;;;9.83;63.95;99447.78;1765803;79;21195;-75
2021/04/02 03:03:42;;;;;;;21.23;15.58;;;;;;;9.81;63.95;99443.83;1760488;79;21473;-75
2021/04/02 03:06:12;;;;;;;21.95;15.18;;;;;;;9.77;63.84;99450.77;1738451;81;21179;-74
2021/04/02 03:08:46;;;;;;;21.57;14.98;;;;;;;9.74;63.56;99460.14;1762803;81;21425;-74
2021/04/02 03:11:16;;;;;;;20.75;15.10;;;;;;;9.73;63.33;99452.41;1768392;79;21595;-73
2021/04/02 03:13:46;;;;;;;18.27;12.88;;;;;;;9.73;63.25;99457.20;1768193;79;21112;-75
2021/04/02 03:16:15;;;;;;;21.07;14.87;;;;;;;9.74;63.07;99461.48;1786256;78;21116;-74
2021/04/02 03:18:47;;;;;;;20.72;13.70;;;;;;;9.75;62.87;99453.73;1786592;78;21150;-73
2021/04/02 03:21:15;;;;;;;22.20;15.38;;;;;;;9.77;62.71;99466.25;1788944;78;21358;-74
2021/04/02 03:23:45;;;;;;;19.37;15.10;;;;;;;9.80;62.53;99460.87;1781909;78;21182;-74
2021/04/02 03:26:15;;;;;;;19.77;14.23;;;;;;;9.84;62.54;99454.73;1790384;78;21140;-74
2021/04/02 03:28:44;;;;;;;24.30;14.87;;;;;;;9.87;62.47;99448.02;1750529;80;21140;-74
2021/04/02 03:31:15;;;;;;;19.40;14.10;;;;;;;9.89;62.30;99453.88;1781916;78;21252;-74
2021/04/02 03:33:51;;;;;;;23.07;15.20;;;;;;;9.90;62.14;99452.80;1740298;80;21200;-74
2021/04/02 03:36:48;;;;;;;21.13;14.63;;;;;;;9.96;61.95;99450.89;1785884;79;22784;-74
2021/04/02 03:39:22;;;;;;;19.27;14.98;;;;;;;9.94;61.73;99461.06;1768643;80;21128;-75
2021/04/02 03:41:54;;;;;;;21.60;14.55;;;;;;;9.95;61.53;99454.10;1789878;79;21463;-74
2021/04/02 03:44:28;;;;;;;18.73;12.68;;;;;;;9.98;61.40;99457.55;1773914;79;21268;-76
2021/04/02 03:46:56;;;;;;;19.52;13.45;;;;;;;9.99;61.06;99463.67;1765035;80;21070;-76
2021/04/02 03:49:28;;;;;;;19.17;13.38;;;;;;;9.99;60.79;99463.67;1773834;80;21184;-75
2021/04/02 03:52:07;;;;;;;20.68;13.85;;;;;;;9.98;60.74;99454.88;1752376;80;21505;-74
2021/04/02 03:54:36;;;;;;;18.05;13.43;;;;;;;9.98;60.79;99455.42;1769574;80;21382;-74
2021/04/02 03:57:07;;;;;;;19.37;13.98;;;;;;;10.00;60.75;99450.07;1776631;79;21172;-75
2021/04/02 03:59:37;;;;;;;20.17;13.50;;;;;;;10.01;60.79;99450.86;1768086;80;21495;-74
2021/04/02 04:02:07;;;;;;;18.37;13.70;;;;;;;10.00;60.66;99453.25;1784963;79;21353;-74
2021/04/02 04:04:36;;;;;;;17.42;13.38;;;;;;;9.98;60.48;99458.88;1775702;79;21669;-75
2021/04/02 04:07:07;;;;;;;19.00;13.80;;;;;;;9.99;60.39;99455.13;1751111;79;21385;-74
2021/04/02 04:09:40;;;;;;;20.27;13.98;;;;;;;9.99;60.59;99457.80;1752275;79;21073;-74
2021/04/02 04:12:12;;;;;;;19.02;13.40;;;;;;;9.98;60.62;99454.09;1782418;79;21179;-74
2021/04/02 04:15:16;;;;;;;20.27;13.27;;;;;;;10.01;60.71;99440.98;1838065;77;22764;-75
2021/04/02 04:17:46;;;;;;;20.35;13.58;;;;;;;9.94;60.67;99441.06;1807219;78;21212;-73
2021/04/02 04:20:17;;;;;;;19.23;13.08;;;;;;;9.92;60.74;99441.86;1802240;78;21220;-74
2021/04/02 04:22:50;;;;;;;18.20;12.85;;;;;;;9.87;60.48;99446.69;1812885;78;21212;-74
2021/04/02 04:25:23;;;;;;;19.57;13.13;;;;;;;9.82;60.49;99442.20;1816254;78;21131;-74
2021/04/02 04:27:51;;;;;;;18.02;13.98;;;;;;;9.80;60.58;99429.67;1824949;78;21642;-75
2021/04/02 04:30:21;;;;;;;18.32;13.55;;;;;;;9.75;60.74;99424.39;1817646;77;21182;-74
2021/04/02 04:32:49;;;;;;;20.05;13.65;;;;;;;9.75;60.91;99424.94;1806874;78;22523;-74
2021/04/02 04:35:18;;;;;;;17.82;13.40;;;;;;;9.73;61.04;99433.73;1843627;77;21211;-74
2021/04/02 04:37:46;;;;;;;19.20;13.50;;;;;;;9.70;61.15;99428.96;1836117;77;21121;-74
2021/04/02 04:40:17;;;;;;;22.77;14.75;;;;;;;9.68;61.28;99426.59;1812829;77;21136;-75
2021/04/02 04:42:47;;;;;;;21.70;14.95;;;;;;;9.67;61.35;99444.18;1800983;77;21188;-75
2021/04/02 04:45:21;;;;;;;19.10;14.60;;;;;;;9.68;61.56;99439.13;1807013;78;21196;-74
2021/04/02 04:47:48;;;;;;;20.88;15.13;;;;;;;9.70;61.57;99428.42;1818574;77;21644;-75
2021/04/02 04:50:16;;;;;;;20.55;14.50;;;;;;;9.75;61.57;99424.94;1800575;78;21622;-74
2021/04/02 04:52:51;;;;;;;19.85;15.08;;;;;;;9.79;61.78;99425.96;1821942;77;21041;-74
2021/04/02 04:55:20;;;;;;;21.87;14.95;;;;;;;9.81;61.92;99428.61;1826798;77;21212;-74
2021/04/02 04:57:49;;;;;;;18.80;14.63;;;;;;;9.84;61.74;99427.27;1822528;78;21373;-74
2021/04/02 05:00:18;;;;;;;20.25;14.68;;;;;;;9.88;61.97;99426.96;1820881;78;21124;-73
2021/04/02 05:02:47;;;;;;;19.90;14.13;;;;;;;9.92;62.14;99425.86;1814465;78;21135;-74
2021/04/02 05:05:25;;;;;;;18.77;14.53;;;;;;;9.93;62.25;99422.11;1824384;78;21617;-74
2021/04/02 05:07:55;;;;;;;18.62;14.28;;;;;;;9.96;62.56;99428.22;1824794;78;21159;-73
2021/04/02 05:10:23;;;;;;;18.80;13.88;;;;;;;9.99;62.71;99419.66;1820112;77;21761;-74
2021/04/02 05:12:51;;;;;;;19.10;14.45;;;;;;;10.03;62.63;99422.02;1799791;78;21180;-73
2021/04/02 05:15:20;;;;;;;18.27;13.05;;;;;;;10.06;62.59;99418.25;1805702;78;21182;-74
2021/04/02 05:17:51;;;;;;;20.08;13.72;;;;;;;10.09;62.42;99420.89;1765322;78;21176;-74
2021/04/02 05:20:20;;;;;;;18.52;13.60;;;;;;;10.12;62.16;99422.21;1805290;78;21174;-73
2021/04/02 05:22:47;;;;;;;20.48;13.58;;;;;;;10.15;61.46;99429.66;1821070;78;21495;-74
2021/04/02 05:25:16;;;;;;;18.20;13.75;;;;;;;10.14;60.97;99433.41;1828394;78;21195;-74
2021/04/02 05:27:44;;;;;;;19.45;14.25;;;;;;;10.16;60.70;99435.24;1819852;77;21231;-73
2021/04/02 05:30:14;;;;;;;19.20;14.03;;;;;;;10.15;60.23;99436.33;1778468;79;21797;-74
2021/04/02 05:32:42;;;;;;;21.77;14.15;;;;;;;10.14;59.89;99438.75;1786225;78;21151;-74
2021/04/02 05:35:12;;;;;;;17.10;12.80;;;;;;;10.14;59.87;99432.08;1826993;78;21908;-74
2021/04/02 05:37:39;;;;;;;20.70;14.07;;;;;;;10.19;59.76;99432.02;1821628;78;21199;-74
2021/04/02 05:40:09;;;;;;;21.37;13.93;;;;;;;10.21;59.42;99435.20;1818490;77;21136;-74
2021/04/02 05:42:40;;;;;;;19.15;14.05;;;;;;;10.19;59.39;99440.02;1849170;77;21108;-74
2021/04/02 05:45:11;;;;;;;17.50;13.22;;;;;;;10.15;59.39;99439.78;1837894;77;21171;-74
2021/04/02 05:47:39;;;;;;;22.07;13.78;;;;;;;10.15;58.98;99451.00;1840297;77;22335;-75
2021/04/02 05:50:09;;;;;;;19.77;14.18;;;;;;;10.09;59.16;99458.25;1841203;77;21632;-73
2021/04/02 05:52:36;;;;;;;19.75;14.75;;;;;;;10.06;59.24;99450.80;1805430;79;21240;-74
2021/04/02 05:55:06;;;;;;;22.07;14.90;;;;;;;10.05;59.18;99450.55;1812502;77;21159;-75
2021/04/02 05:57:34;;;;;;;20.25;13.88;;;;;;;10.03;59.09;99433.48;1809415;77;21181;-74
2021/04/02 06:00:04;;;;;;;22.07;14.63;;;;;;;10.06;59.22;99431.58;1807227;77;21854;-73
2021/04/02 06:02:33;;;;;;;18.45;13.93;;;;;;;10.12;59.42;99427.00;1817523;77;21169;-73
2021/04/02 06:05:01;;;;;;;21.97;15.43;;;;;;;10.18;59.39;99413.87;1790692;78;21163;-75
2021/04/02 06:07:29;;;;;;;19.98;14.73;;;;;;;10.23;59.42;99391.67;1787818;78;21627;-75
2021/04/02 06:09:57;;;;;;;21.80;15.32;;;;;;;10.23;59.76;99377.81;1817582;78;21175;-74
2021/04/02 06:12:26;;;;;;;20.60;14.38;;;;;;;10.22;60.01;99370.87;1842071;77;22378;-74
2021/04/02 06:14:54;;;;;;;19.82;14.10;;;;;;;10.23;60.22;99368.48;1840061;77;21155;-75
2021/04/02 06:17:22;;;;;;;19.40;14.85;;;;;;;10.27;60.24;99365.52;1812091;78;21186;-74
2021/04/02 06:20:06;;;;;;;20.37;15.03;;;;;;;10.31;60.74;99356.40;1819693;77;21246;-74
2021/04/02 06:22:34;;;;;;;23.00;15.35;;;;;;;10.30;60.97;99358.83;1836501;77;21132;-74
2021/04/02 06:25:04;;;;;;;19.77;15.08;;;;;;;10.29;61.08;99358.55;1816048;77;21576;-74
2021/04/02 06:27:32;;;;;;;25.20;15.95;;;;;;;10.30;61.22;99338.27;1814837;77;21282;-74
2021/04/02 06:32:40;;;;;;;18.53;14.17;;;;;;;10.31;61.23;99350.52;1828685;75;23035;-75
2021/04/02 06:35:09;;;;;;;17.52;13.03;;;;;;;10.28;61.59;99357.75;1805374;77;21104;-75
2021/04/02 06:37:38;;;;;;;20.62;14.98;;;;;;;10.31;62.44;99359.07;1833503;76;21372;-74
2021/04/02 06:40:18;;;;;;;23.57;16.02;;;;;;;10.31;62.84;99374.54;1828612;76;21157;-74
2021/04/02 06:42:46;;;;;;;20.95;14.80;;;;;;;10.24;63.28;99382.06;1835954;76;21519;-75
2021/04/02 06:45:15;;;;;;;20.00;14.53;;;;;;;10.17;63.78;99384.79;1819619;77;21224;-74
2021/04/02 06:47:44;;;;;;;21.23;16.25;;;;;;;10.14;64.07;99386.72;1826174;76;21224;-74
2021/04/02 06:50:18;;;;;;;20.48;14.07;;;;;;;10.09;64.21;99391.00;1829550;76;22283;-75
2021/04/02 06:52:55;;;;;;;23.22;16.80;;;;;;;10.07;64.26;99406.52;1832501;77;21178;-74
2021/04/02 06:55:25;;;;;;;22.62;16.30;;;;;;;10.01;64.44;99418.84;1839758;76;21152;-76
2021/04/02 06:57:56;;;;;;;21.73;15.63;;;;;;;9.95;64.78;99432.77;1836919;76;22299;-75
2021/04/02 07:00:26;;;;;;;25.25;18.52;;;;;;;9.91;65.61;99450.41;1831549;76;21209;-75
2021/04/02 07:02:54;;;;;;;23.35;17.77;;;;;;;9.80;66.18;99460.34;1823223;77;21797;-75
2021/04/02 07:05:25;;;;;;;23.05;18.12;;;;;;;9.73;66.87;99456.41;1823202;77;21633;-75
2021/04/02 07:08:06;;;;;;;23.42;17.35;;;;;;;9.71;67.26;99470.03;1831823;76;21173;-75
2021/04/02 07:10:37;;;;;;;24.20;16.65;;;;;;;9.71;67.74;99462.03;1832818;76;21170;-75
2021/04/02 07:13:06;;;;;;;24.63;17.20;;;;;;;9.73;67.99;99461.19;1837725;76;21181;-75
2021/04/02 07:15:40;;;;;;;28.00;17.87;;;;;;;9.79;68.29;99460.63;1848608;76;21802;-74
2021/04/02 07:18:29;;;;;;;21.77;17.67;;;;;;;9.87;68.52;99462.69;1805593;77;21075;-75
2021/04/02 07:21:27;;;;;;;27.80;19.57;;;;;;;10.03;68.79;99458.03;1826162;77;21636;-75
2021/04/02 07:23:56;;;;;;;23.87;18.67;;;;;;;10.14;68.99;99462.77;1830752;76;21141;-75
2021/04/02 07:26:27;;;;;;;24.85;17.65;;;;;;;10.22;69.25;99466.14;1824611;77;21191;-75
2021/04/02 07:28:56;;;;;;;21.40;16.93;;;;;;;10.30;69.44;99476.25;1825315;77;22178;-75
2021/04/02 07:31:25;;;;;;;27.32;20.12;;;;;;;10.32;69.54;99477.55;1829375;77;21163;-75
2021/04/02 07:33:53;;;;;;;27.95;21.75;;;;;;;10.30;69.68;99485.05;1836251;76;21547;-75
2021/04/02 07:36:21;;;;;;;33.78;23.40;;;;;;;10.30;69.92;99486.93;1828471;77;21157;-76
2021/04/02 07:38:57;;;;;;;29.90;22.25;;;;;;;10.29;69.95;99484.77;1826855;77;21609;-77
2021/04/02 07:41:48;;;;;;;32.20;23.20;;;;;;;10.37;69.93;99483.39;1758411;79;22846;-75
2021/04/02 07:44:18;;;;;;;26.27;21.70;;;;;;;10.33;70.00;99483.67;1736342;82;21216;-76
2021/04/02 07:47:08;;;;;;;26.80;21.42;;;;;;;10.39;70.03;99486.55;1734462;82;21421;-75
2021/04/02 07:49:57;;;;;;;27.20;20.80;;;;;;;10.40;69.84;99487.34;1726751;82;21651;-75
2021/04/02 07:52:39;;;;;;;29.75;21.12;;;;;;;10.43;69.83;99494.80;1724455;82;21184;-76
2021/04/02 07:55:17;;;;;;;31.20;21.40;;;;;;;10.45;69.83;99498.78;1730024;81;21657;-76
2021/04/02 07:58:05;;;;;;;28.92;22.37;;;;;;;10.44;70.10;99503.08;1728672;82;21680;-76
2021/04/02 08:00:34;;;;;;;28.05;20.52;;;;;;;10.44;70.39;99511.09;1729696;80;21580;-77
2021/04/02 08:03:12;;;;;;;31.10;23.50;;;;;;;10.43;70.76;99517.48;1730477;82;21822;-75
2021/04/02 08:05:47;;;;;;;31.73;22.65;;;;;;;10.35;71.48;99513.56;1712855;82;21152;-75
2021/04/02 08:08:15;;;;;;;25.40;19.92;;;;;;;10.26;72.14;99513.90;1718319;82;21512;-75
2021/04/02 08:11:27;;;;;;;26.85;20.00;;;;;;;10.19;72.90;99517.41;1725175;81;21482;-74
2021/04/02 08:14:04;;;;;;;21.90;16.77;;;;;;;10.16;73.57;99529.97;1703442;83;21458;-74
2021/04/02 08:16:47;;;;;;;18.35;13.45;;;;;;;10.10;74.44;99538.03;1709892;81;21153;-75
2021/04/02 08:19:22;;;;;;;16.97;12.85;;;;;;;10.03;75.21;99540.73;1716510;82;21235;-75
2021/04/02 08:22:06;;;;;;;18.73;12.40;;;;;;;9.80;75.95;99528.34;1708178;83;21191;-76
2021/04/02 08:24:38;;;;;;;17.57;12.75;;;;;;;9.59;76.59;99529.55;1707008;83;21232;-74
2021/04/02 08:27:07;;;;;;;;;;;;;;;9.42;77.42;99538.45;1715801;83;22340;-74
2021/04/02 08:29:35;;;;;;;18.45;12.70;;;;;;;9.26;78.05;99551.83;1711522;83;20283;-74
2021/04/02 08:32:06;;;;;;;18.20;11.75;;;;;;;9.12;78.78;99548.16;1707543;82;21172;-76
2021/04/02 08:34:35;;;;;;;19.80;13.62;;;;;;;9.00;79.38;99540.45;1709007;82;21192;-75
2021/04/02 08:37:07;;;;;;;16.75;12.07;;;;;;;8.86;80.04;99550.09;1703349;82;21639;-75
2021/04/02 08:39:36;;;;;;;17.12;12.03;;;;;;;8.75;80.53;99544.50;1710417;82;21813;-75
2021/04/02 08:42:11;;;;;;;16.12;11.53;;;;;;;8.64;81.22;99542.41;1696926;83;21706;-76
2021/04/02 08:44:42;;;;;;;17.52;11.35;;;;;;;8.55;81.82;99544.00;1692067;84;21145;-75
2021/04/02 08:47:13;;;;;;;17.02;12.10;;;;;;;8.44;82.34;99553.87;1700662;82;21158;-76
2021/04/02 08:49:54;;;;;;;18.92;12.50;;;;;;;8.35;82.76;99554.10;1694937;83;21569;-76
2021/04/02 08:52:24;;;;;;;16.25;12.23;;;;;;;8.28;83.14;99559.69;1687100;84;21347;-75
2021/04/02 08:54:59;;;;;;;11.97;9.73;;;;;;;8.22;83.47;99563.41;1690509;84;21217;-75
2021/04/02 08:57:29;;;;;;;8.73;6.58;;;;;;;8.16;83.76;99548.50;1692895;82;21723;-75
2021/04/02 08:59:59;;;;;;;12.18;8.40;;;;;;;8.05;84.05;99551.70;1693907;82;21279;-76
2021/04/02 09:02:29;;;;;;;10.18;6.67;;;;;;;7.93;84.32;99564.44;1682301;83;21197;-75
2021/04/02 09:04:57;;;;;;;11.50;8.73;;;;;;;7.83;84.66;99560.43;1681785;84;21352;-75
2021/04/02 09:07:24;;;;;;;13.78;10.53;;;;;;;7.70;84.95;99557.23;1699190;84;21229;-76
2021/04/02 09:09:53;;;;;;;15.55;10.65;;;;;;;7.62;85.21;99562.25;1694742;82;21240;-76
2021/04/02 09:12:21;;;;;;;13.10;10.40;;;;;;;7.55;85.52;99558.52;1692559;82;21201;-76
2021/04/02 09:14:51;;;;;;;15.58;10.43;;;;;;;7.52;85.83;99559.03;1663809;84;21148;-76
2021/04/02 09:17:23;;;;;;;16.00;11.03;;;;;;;7.46;86.04;99556.88;1651558;85;22795;-77
2021/04/02 09:19:53;;;;;;;17.67;14.03;;;;;;;7.39;86.23;99555.53;1695375;83;21070;-77
2021/04/02 09:22:22;;;;;;;20.27;17.17;;;;;;;7.34;86.40;99560.81;1685104;82;21205;-76
2021/04/02 09:24:50;;;;;;;23.22;18.98;;;;;;;7.29;86.45;99567.70;1694821;84;21627;-75
2021/04/02 09:27:21;;;;;;;18.07;15.75;;;;;;;7.23;86.51;99567.41;1695701;82;21213;-77
2021/04/02 09:29:55;;;;;;;17.90;14.25;;;;;;;7.20;86.63;99569.25;1688310;82;22362;-76
2021/04/02 09:32:21;;;;;;;13.35;10.72;;;;;;;7.11;86.59;99572.16;1696954;84;21660;-74
2021/04/02 09:34:49;;;;;;;17.07;14.05;;;;;;;7.01;86.66;99568.92;1703912;83;21213;-76
2021/04/02 09:37:18;;;;;;;13.85;11.43;;;;;;;6.93;86.73;99583.98;1694574;82;21216;-76
2021/04/02 09:39:46;;;;;;;11.08;7.33;;;;;;;6.86;86.74;99595.36;1676864;82;21202;-76
2021/04/02 09:42:15;;;;;;;8.23;5.62;;;;;;;6.81;86.87;99589.50;1696346;82;21351;-75
2021/04/02 09:44:47;;;;;;;6.90;4.50;;;;;;;6.77;86.95;99595.03;1704845;84;21253;-78
2021/04/02 09:47:15;;;;;;;5.33;3.50;;;;;;;6.75;87.09;99603.00;1680097;83;21690;-76
2021/04/02 09:49:44;;;;;;;6.83;4.05;;;;;;;6.69;87.10;99600.83;1693355;82;21233;-75
2021/04/02 09:52:11;;;;;;;5.60;3.58;;;;;;;6.63;87.18;99597.06;1677043;84;21157;-76
2021/04/02 09:54:40;;;;;;;5.05;3.40;;;;;;;6.56;87.23;99604.70;1699868;84;21797;-77
2021/04/02 09:57:08;;;;;;;5.65;3.60;;;;;;;6.52;87.35;99598.84;1696475;83;21577;-76
2021/04/02 09:59:36;;;;;;;5.55;3.30;;;;;;;6.48;87.46;99595.08;1689362;84;21229;-77
2021/04/02 10:02:05;;;;;;;6.33;3.40;;;;;;;6.46;87.62;99596.66;1667498;84;21227;-75
2021/04/02 10:04:32;;;;;;;6.00;4.17;;;;;;;6.44;87.53;99595.31;1663607;84;21193;-78
2021/04/02 10:07:01;;;;;;;22.13;17.42;;;;;;;6.41;87.54;99597.94;1661881;84;21337;-77
2021/04/02 10:09:29;;;;;;;26.90;22.35;;;;;;;6.37;87.39;99595.52;1652703;84;21276;-74
2021/04/02 10:11:58;;;;;;;17.80;15.05;;;;;;;6.32;87.33;99597.62;1658876;85;21244;-76
2021/04/02 10:14:28;;;;;;;19.20;15.88;;;;;;;6.27;87.33;99594.11;1667500;86;21193;-76
2021/04/02 10:16:56;;;;;;;16.77;12.03;;;;;;;6.22;87.35;99598.03;1638065;86;21218;-76
2021/04/02 10:19:24;;;;;;;19.45;13.95;;;;;;;6.18;87.41;99602.25;1694958;82;21371;-77
2021/04/02 10:21:53;;;;;;;19.07;14.80;;;;;;;6.15;87.43;99596.91;1699748;82;21233;-75
2021/04/02 10:24:21;;;;;;;17.42;12.33;;;;;;;6.13;87.51;99599.56;1697410;84;21174;-77
2021/04/02 10:26:49;;;;;;;17.07;12.53;;;;;;;6.11;87.52;99597.14;1702029;84;21046;-75
2021/04/02 10:29:17;;;;;;;21.25;14.43;;;;;;;6.12;87.70;99601.42;1692568;84;21137;-77
2021/04/02 10:31:46;;;;;;;18.48;13.05;;;;;;;6.11;87.76;99601.92;1700517;81;21145;-72
2021/04/02 10:34:13;;;;;;;20.27;15.00;;;;;;;6.09;87.78;99600.06;1692016;82;21129;-76
2021/04/02 10:36:41;;;;;;;16.17;12.82;;;;;;;6.08;87.89;99601.62;1704438;84;21114;-76
2021/04/02 10:39:10;;;;;;;10.63;7.80;;;;;;;6.06;88.03;99595.26;1701856;82;21098;-75
2021/04/02 10:41:38;;;;;;;12.13;8.15;;;;;;;6.06;87.99;99601.89;1697482;80;21145;-76
2021/04/02 10:44:07;;;;;;;9.83;6.50;;;;;;;6.04;87.96;99597.34;1697767;84;21282;-75
2021/04/02 10:46:35;;;;;;;13.25;8.75;;;;;;;6.06;88.04;99609.05;1699421;84;21208;-76
2021/04/02 10:49:03;;;;;;;14.55;9.70;;;;;;;6.04;88.05;99621.20;1697774;84;21265;-76
2021/04/02 10:51:30;;;;;;;13.10;9.38;;;;;;;6.06;87.96;99619.64;1698255;83;21196;-77
2021/04/02 10:54:02;;;;;;;17.05;9.38;;;;;;;6.04;87.72;99619.87;1699075;84;21672;-75
2021/04/02 10:56:31;;;;;;;8.35;5.58;;;;;;;6.02;87.52;99625.15;1696396;84;21400;-76
2021/04/02 10:58:59;;;;;;;3.30;2.12;;;;;;;6.00;87.60;99620.64;1700160;83;21653;-76
2021/04/02 11:01:26;;;;;;;3.42;2.15;;;;;;;5.98;87.54;99617.42;1691446;83;21173;-75
2021/04/02 11:03:54;;;;;;;2.47;1.20;;;;;;;5.99;87.47;99622.50;1693743;84;21192;-76
2021/04/02 11:06:22;;;;;;;2.42;1.47;;;;;;;6.00;87.38;99625.41;1689119;84;21620;-74
2021/04/02 11:08:50;;;;;;;2.85;1.80;;;;;;;5.99;87.30;99639.72;1695632;82;22302;-76
2021/04/02 11:11:17;;;;;;;2.40;1.30;;;;;;;6.00;87.37;99624.62;1694260;84;21695;-75
2021/04/02 11:13:45;;;;;;;2.12;1.20;;;;;;;5.98;87.52;99622.20;1701099;82;21161;-76
2021/04/02 11:16:13;;;;;;;3.85;1.10;;;;;;;5.99;87.51;99626.47;1703509;83;21212;-76
2021/04/02 11:18:45;;;;;;;2.17;1.07;;;;;;;5.97;87.36;99631.73;1691286;82;21172;-75
2021/04/02 11:21:13;;;;;;;1.27;0.90;;;;;;;5.92;87.03;99635.09;1699542;83;22347;-76
2021/04/02 11:23:41;;;;;;;1.62;0.90;;;;;;;5.87;87.00;99643.80;1661363;84;21153;-76
2021/04/02 11:26:12;;;;;;;1.30;1.00;;;;;;;5.82;86.91;99654.84;1654571;84;21180;-74
2021/04/02 11:28:39;;;;;;;3.00;1.42;;;;;;;5.75;86.67;99664.84;1658781;84;21229;-75
2021/04/02 11:31:07;;;;;;;2.50;1.25;;;;;;;5.69;86.55;99646.75;1663098;84;21200;-75
2021/04/02 11:33:35;;;;;;;2.27;1.30;;;;;;;5.63;86.28;99649.88;1661772;86;21425;-74
2021/04/02 11:36:06;;;;;;;5.75;4.22;;;;;;;5.61;86.18;99653.81;1663079;84;21145;-75
2021/04/02 11:38:36;;;;;;;7.85;6.22;;;;;;;5.55;85.94;99656.92;1662281;86;22284;-75
2021/04/02 11:41:05;;;;;;;10.95;8.93;;;;;;;5.53;85.89;99660.35;1663372;84;21209;-75
2021/04/02 11:43:33;;;;;;;5.83;4.35;;;;;;;5.52;85.91;99668.00;1658527;84;21646;-74
2021/04/02 11:46:01;;;;;;;2.67;1.45;;;;;;;5.54;85.76;99670.42;1657443;84;21376;-76